createdAt,value
2022-08-10T00:04:31.900Z,10.1
2022-08-10T00:10:32.988Z,10
2022-08-10T00:16:32.068Z,10.1
2022-08-10T00:22:31.645Z,10.1
2022-08-10T00:28:32.652Z,10
2022-08-10T00:34:31.729Z,10
2022-08-10T00:40:37.375Z,10.1
2022-08-10T00:46:33.350Z,10.1
2022-08-10T00:52:32.336Z,10.1
2022-08-10T00:58:32.037Z,10
2022-08-10T01:04:54.578Z,10.1
2022-08-10T01:10:31.278Z,10
2022-08-10T01:16:31.612Z,10
2022-08-10T01:22:31.392Z,9.9
2022-08-10T01:28:31.244Z,9.9
2022-08-10T01:34:31.379Z,9.9
2022-08-10T01:40:31.510Z,10
2022-08-10T01:46:32.088Z,9.9
2022-08-10T01:52:31.719Z,9.9
2022-08-10T01:58:31.900Z,9.9
2022-08-10T02:04:31.595Z,9.9
2022-08-10T02:10:31.930Z,10
2022-08-10T02:16:31.945Z,9.9
2022-08-10T02:22:35.991Z,10
2022-08-10T02:28:31.640Z,9.9
2022-08-10T02:34:31.554Z,9.9
2022-08-10T02:45:03.529Z,9.9
2022-08-10T02:46:31.725Z,10
2022-08-10T02:52:31.467Z,10
2022-08-10T02:58:31.472Z,10
2022-08-10T03:04:56.043Z,10.1
2022-08-10T03:10:31.910Z,10.1
2022-08-10T03:16:33.131Z,10.1
2022-08-10T03:22:31.561Z,10
2022-08-10T03:28:31.706Z,10
2022-08-10T03:34:33.589Z,10
2022-08-10T03:40:46.327Z,10
2022-08-10T03:46:31.501Z,10
2022-08-10T03:52:32.614Z,10
2022-08-10T03:58:32.305Z,10.1
2022-08-10T04:04:32.712Z,10.1
2022-08-10T04:10:31.573Z,10.1
2022-08-10T04:16:31.920Z,10.1
2022-08-10T04:22:31.459Z,10
2022-08-10T04:28:32.663Z,10.1
2022-08-10T04:34:31.918Z,10
2022-08-10T04:40:31.696Z,10
2022-08-10T04:46:55.323Z,10
2022-08-10T04:52:33.792Z,10.1
2022-08-10T04:58:31.717Z,10.1
2022-08-10T05:04:35.727Z,10.1
2022-08-10T05:10:31.699Z,10.2
2022-08-10T05:16:32.415Z,10.2
2022-08-10T05:22:32.278Z,10.2
2022-08-10T05:28:35.098Z,10.3
2022-08-10T05:34:32.321Z,10.3
2022-08-10T05:40:31.529Z,10.3
2022-08-10T05:46:31.962Z,10.3
2022-08-10T05:52:33.554Z,10.3
2022-08-10T05:58:31.780Z,10.4
2022-08-10T06:04:31.666Z,10.5
2022-08-10T06:10:33.000Z,10.4
2022-08-10T06:16:31.870Z,10.3
2022-08-10T06:22:32.394Z,10.5
2022-08-10T06:28:31.635Z,10.3
2022-08-10T06:34:31.898Z,10.2
2022-08-10T06:40:31.567Z,10.2
2022-08-10T06:46:32.007Z,10.2
2022-08-10T06:52:31.693Z,10.2
2022-08-10T06:58:32.523Z,10
2022-08-10T07:04:32.700Z,10.1
2022-08-10T07:10:41.245Z,10
2022-08-10T07:16:31.601Z,10.1
2022-08-10T07:23:27.174Z,10.1
2022-08-10T07:28:31.908Z,10
2022-08-10T07:34:31.810Z,10
2022-08-10T07:40:32.055Z,10
2022-08-10T07:46:32.339Z,10
2022-08-10T07:52:31.938Z,10.2
2022-08-10T07:58:31.860Z,10.2
2022-08-10T08:04:31.997Z,10.4
2022-08-10T08:10:31.722Z,10.3
2022-08-10T08:16:32.375Z,10.1
2022-08-10T08:24:05.426Z,10.3
2022-08-10T08:28:32.010Z,10
2022-08-10T08:34:31.798Z,10.2
2022-08-10T08:40:31.699Z,10
2022-08-10T08:46:31.268Z,10
2022-08-10T08:52:31.350Z,10
2022-08-10T08:58:31.297Z,10.1
2022-08-10T09:04:31.282Z,10.3
2022-08-10T09:10:36.745Z,9.9
2022-08-10T09:16:31.387Z,10.1
2022-08-10T09:22:31.668Z,10.1
2022-08-10T09:28:31.684Z,9.7
2022-08-10T09:36:25.758Z,10
2022-08-10T09:40:59.274Z,10
2022-08-10T09:46:31.470Z,9.9
2022-08-10T09:52:31.578Z,9.8
2022-08-10T09:58:31.434Z,9.4
2022-08-10T10:04:32.006Z,9.2
2022-08-10T10:10:31.986Z,9.4
2022-08-10T10:16:31.502Z,9.4
2022-08-10T10:22:31.433Z,9.4
2022-08-10T10:28:50.155Z,9.4
2022-08-10T10:34:31.424Z,9.1
2022-08-10T10:40:31.670Z,9.3
2022-08-10T10:46:31.457Z,9.6
2022-08-10T10:52:31.444Z,9.2
2022-08-10T10:58:31.637Z,9.3
2022-08-10T11:04:31.513Z,9.8
2022-08-10T11:10:33.816Z,9.8
2022-08-10T11:16:31.584Z,9.5
2022-08-10T11:22:31.490Z,9.1
2022-08-10T11:28:34.036Z,9.7
2022-08-10T11:34:48.562Z,9.2
2022-08-10T11:40:31.922Z,9.2
2022-08-10T11:46:32.113Z,9.2
2022-08-10T11:52:31.637Z,9.2
2022-08-10T11:58:31.792Z,9.4
2022-08-10T12:04:32.075Z,9.1
2022-08-10T12:10:31.906Z,9.3
2022-08-10T12:16:31.862Z,9.3
2022-08-10T12:22:31.811Z,9.3
2022-08-10T12:28:49.540Z,9.3
2022-08-10T12:34:31.597Z,9.3
2022-08-10T12:40:35.553Z,9.3
2022-08-10T12:46:31.718Z,9.3
2022-08-10T12:52:31.825Z,9.2
2022-08-10T12:58:57.061Z,9.5
2022-08-10T13:04:32.587Z,9.3
2022-08-10T13:10:31.776Z,9.5
2022-08-10T13:16:32.095Z,9.1
2022-08-10T13:22:32.522Z,9.1
2022-08-10T13:28:35.605Z,9
2022-08-10T13:34:42.464Z,9.1
2022-08-10T13:40:31.970Z,9
2022-08-10T13:46:33.290Z,9.3
2022-08-10T13:52:32.084Z,9.2
2022-08-10T13:58:32.382Z,9.1
2022-08-10T14:04:32.554Z,9.2
2022-08-10T14:11:10.036Z,9.5
2022-08-10T14:16:33.523Z,9.5
2022-08-10T14:22:34.515Z,9.4
2022-08-10T14:28:33.176Z,9.5
2022-08-10T14:34:59.080Z,9.6
2022-08-10T14:40:32.004Z,9.3
2022-08-10T14:46:31.864Z,8.9
2022-08-10T14:52:32.387Z,9.3
2022-08-10T14:58:32.530Z,9.8
2022-08-10T15:04:32.019Z,9.5
2022-08-10T15:10:31.811Z,9.9
2022-08-10T15:16:31.975Z,9.6
2022-08-10T15:22:37.946Z,9.6
2022-08-10T15:29:23.576Z,9.9
2022-08-10T15:34:32.138Z,10
2022-08-10T15:40:37.398Z,9.5
2022-08-10T15:46:31.966Z,9.9
2022-08-10T15:52:40.014Z,9.9
2022-08-10T15:58:39.834Z,10.1
2022-08-10T16:04:32.673Z,10.7
2022-08-10T16:10:35.401Z,10.5
2022-08-10T16:16:31.903Z,10.6
2022-08-10T16:22:36.890Z,10.1
2022-08-10T16:28:31.783Z,10.2
2022-08-10T16:34:31.940Z,10.5
2022-08-10T16:40:32.000Z,10.7
2022-08-10T16:46:32.473Z,10.1
2022-08-10T16:52:31.821Z,10.7
2022-08-10T16:58:31.804Z,10.9
2022-08-10T17:04:31.859Z,10.8
2022-08-10T17:10:31.799Z,11.4
2022-08-10T17:16:32.090Z,10.9
2022-08-10T17:22:32.482Z,10.6
2022-08-10T17:28:34.564Z,11
2022-08-10T17:34:33.240Z,10.9
2022-08-10T17:40:32.046Z,10.1
2022-08-10T17:46:31.840Z,9.8
2022-08-10T17:52:32.522Z,9
2022-08-10T17:58:31.814Z,8.8
2022-08-10T18:04:42.192Z,8.7
2022-08-10T18:10:32.792Z,8.8
2022-08-10T18:16:32.589Z,8.8
2022-08-10T18:22:31.932Z,8.8
2022-08-10T18:28:32.142Z,8.8
2022-08-10T18:34:31.949Z,8.8
2022-08-10T18:40:35.409Z,8.8
2022-08-10T18:46:31.892Z,9.1
2022-08-10T18:52:33.056Z,9
2022-08-10T18:58:32.608Z,8.9
2022-08-10T19:04:31.735Z,8.9
2022-08-10T19:10:31.574Z,8.9
2022-08-10T19:16:35.584Z,9
2022-08-10T19:22:31.746Z,9
2022-08-10T19:28:31.894Z,9
2022-08-10T19:34:31.685Z,9.6
2022-08-10T19:40:43.519Z,9.1
2022-08-10T19:46:31.862Z,9.4
2022-08-10T19:52:31.714Z,9
2022-08-10T19:58:31.855Z,9
2022-08-10T20:04:32.287Z,8.8
2022-08-10T20:10:31.933Z,8.8
2022-08-10T20:16:32.086Z,8.8
2022-08-10T20:22:32.523Z,8.8
2022-08-10T20:28:32.592Z,8.7
2022-08-10T20:34:31.815Z,8.7
2022-08-10T20:40:31.745Z,8.9
2022-08-10T20:46:31.970Z,8.8
2022-08-10T20:52:31.863Z,8.8
2022-08-10T20:58:31.863Z,8.8
2022-08-10T21:04:31.651Z,8.9
2022-08-10T21:10:31.756Z,8.9
2022-08-10T21:16:31.724Z,8.9
2022-08-10T21:22:31.689Z,8.9
2022-08-10T21:28:31.783Z,8.9
2022-08-10T21:34:32.635Z,9
2022-08-10T21:40:35.519Z,9
2022-08-10T21:46:31.742Z,8.9
2022-08-10T21:52:31.726Z,8.9
2022-08-10T21:58:31.735Z,8.8
2022-08-10T22:04:32.049Z,8.9
2022-08-10T22:10:32.084Z,8.9
2022-08-10T22:16:32.414Z,8.8
2022-08-10T22:22:32.137Z,8.8
2022-08-10T22:28:31.676Z,8.8
2022-08-10T22:34:31.854Z,9
2022-08-10T22:40:31.773Z,9
2022-08-10T22:46:32.129Z,9
2022-08-10T22:52:33.953Z,9.1
2022-08-10T22:58:32.283Z,9.1
2022-08-10T23:04:34.885Z,9
2022-08-10T23:10:32.049Z,9
2022-08-10T23:16:32.176Z,9.1
2022-08-10T23:22:33.025Z,9.1
2022-08-10T23:28:55.443Z,9.1
2022-08-10T23:34:32.071Z,9.1
2022-08-10T23:40:32.214Z,9.2
2022-08-10T23:46:32.231Z,9.2
2022-08-10T23:52:32.207Z,9.2
2022-08-10T23:58:33.926Z,9.2
